sensor_id;sensor_type;location;lat;lon;timestamp;pressure;altitude;pressure_sealevel;temperature;humidity
9129;BME280;4599;50.906;6.786;2023-03-23T00:01:39;15877.06;;;-142.83;69.97
9129;BME280;4599;50.906;6.786;2023-03-23T00:05:40;15850.47;;;-142.83;70.02
9129;BME280;4599;50.906;6.786;2023-03-23T00:09:40;15860.69;;;-142.83;69.80
9129;BME280;4599;50.906;6.786;2023-03-23T00:13:41;15834.13;;;-142.83;70.52
9129;BME280;4599;50.906;6.786;2023-03-23T00:17:43;15821.84;;;-142.83;70.87
9129;BME280;4599;50.906;6.786;2023-03-23T00:21:44;15838.22;;;-142.83;69.45
9129;BME280;4599;50.906;6.786;2023-03-23T00:25:45;15866.84;;;-142.83;70.17
9129;BME280;4599;50.906;6.786;2023-03-23T00:29:46;15807.53;;;-142.83;71.22
9129;BME280;4599;50.906;6.786;2023-03-23T00:33:48;15846.38;;;-142.83;70.25
9129;BME280;4599;50.906;6.786;2023-03-23T00:37:48;15870.91;;;-142.83;70.21
9129;BME280;4599;50.906;6.786;2023-03-23T00:41:48;15815.72;;;-142.83;70.11
9129;BME280;4599;50.906;6.786;2023-03-23T00:45:49;15836.16;;;-142.83;70.72
9129;BME280;4599;50.906;6.786;2023-03-23T00:49:51;15866.84;;;-142.83;69.62
9129;BME280;4599;50.906;6.786;2023-03-23T00:53:51;15854.56;;;-142.83;69.33
9129;BME280;4599;50.906;6.786;2023-03-23T00:57:52;15848.44;;;-142.83;70.25
9129;BME280;4599;50.906;6.786;2023-03-23T01:01:52;15823.91;;;-142.83;69.64
9129;BME280;4599;50.906;6.786;2023-03-23T01:05:54;15825.94;;;-142.83;69.96
9129;BME280;4599;50.906;6.786;2023-03-23T01:09:55;15846.38;;;-142.83;69.30
9129;BME280;4599;50.906;6.786;2023-03-23T01:13:55;15889.31;;;-142.83;68.79
9129;BME280;4599;50.906;6.786;2023-03-23T01:17:56;15891.38;;;-142.83;70.04
9129;BME280;4599;50.906;6.786;2023-03-23T01:21:58;15854.56;;;-142.83;68.66
9129;BME280;4599;50.906;6.786;2023-03-23T01:26:03;15858.66;;;-142.83;69.40
9129;BME280;4599;50.906;6.786;2023-03-23T01:30:04;15860.69;;;-142.83;68.80
9129;BME280;4599;50.906;6.786;2023-03-23T01:34:05;15848.44;;;-142.83;69.01
9129;BME280;4599;50.906;6.786;2023-03-23T01:38:07;15825.94;;;-142.83;71.19
9129;BME280;4599;50.906;6.786;2023-03-23T01:42:08;15785.03;;;-142.83;71.98
9129;BME280;4599;50.906;6.786;2023-03-23T01:46:08;15805.50;;;-142.83;73.15
9129;BME280;4599;50.906;6.786;2023-03-23T01:50:09;15748.25;;;-142.83;76.92
9129;BME280;4599;50.906;6.786;2023-03-23T01:54:12;15795.28;;;-142.83;76.31
9129;BME280;4599;50.906;6.786;2023-03-23T01:58:15;15772.78;;;-142.83;78.99
9129;BME280;4599;50.906;6.786;2023-03-23T02:02:20;15756.41;;;-142.83;77.37
9129;BME280;4599;50.906;6.786;2023-03-23T02:06:21;15752.34;;;-142.83;77.88
9129;BME280;4599;50.906;6.786;2023-03-23T02:10:23;15756.41;;;-142.83;77.49
9129;BME280;4599;50.906;6.786;2023-03-23T02:14:25;15735.97;;;-142.83;77.27
9129;BME280;4599;50.906;6.786;2023-03-23T02:18:34;15735.97;;;-142.83;76.42
9129;BME280;4599;50.906;6.786;2023-03-23T02:22:51;15746.19;;;-142.83;78.31
9129;BME280;4599;50.906;6.786;2023-03-23T02:27:00;15699.19;;;-142.83;79.53
9129;BME280;4599;50.906;6.786;2023-03-23T02:31:16;15719.63;;;-142.83;77.43
9129;BME280;4599;50.906;6.786;2023-03-23T02:35:21;15744.16;;;-142.83;76.99
9129;BME280;4599;50.906;6.786;2023-03-23T02:39:26;15701.22;;;-142.83;77.34
9129;BME280;4599;50.906;6.786;2023-03-23T02:43:33;15725.75;;;-142.83;78.09
9129;BME280;4599;50.906;6.786;2023-03-23T02:47:36;15742.09;;;-142.83;76.62
9129;BME280;4599;50.906;6.786;2023-03-23T02:51:39;15709.41;;;-142.83;76.97
9129;BME280;4599;50.906;6.786;2023-03-23T02:55:43;15756.41;;;-142.83;75.85
9129;BME280;4599;50.906;6.786;2023-03-23T02:59:45;15789.13;;;-142.83;75.26
9129;BME280;4599;50.906;6.786;2023-03-23T03:03:45;15760.50;;;-142.83;75.32
9129;BME280;4599;50.906;6.786;2023-03-23T03:07:58;15764.59;;;-142.83;77.00
9129;BME280;4599;50.906;6.786;2023-03-23T03:12:06;15776.88;;;-142.83;75.20
9129;BME280;4599;50.906;6.786;2023-03-23T03:16:16;15752.34;;;-142.83;75.18
9129;BME280;4599;50.906;6.786;2023-03-23T03:20:22;15774.81;;;-142.83;74.15
9129;BME280;4599;50.906;6.786;2023-03-23T03:24:28;15740.06;;;-142.83;75.20
9129;BME280;4599;50.906;6.786;2023-03-23T03:28:29;15776.88;;;-142.83;74.71
9129;BME280;4599;50.906;6.786;2023-03-23T03:32:34;15776.88;;;-142.83;75.35
9129;BME280;4599;50.906;6.786;2023-03-23T03:36:37;15764.59;;;-142.83;74.09
9129;BME280;4599;50.906;6.786;2023-03-23T03:40:39;15758.47;;;-142.83;74.18
9129;BME280;4599;50.906;6.786;2023-03-23T03:44:40;15750.28;;;-142.83;73.75
9129;BME280;4599;50.906;6.786;2023-03-23T03:48:40;15754.38;;;-142.83;75.44
9129;BME280;4599;50.906;6.786;2023-03-23T03:52:40;15772.78;;;-142.83;74.24
9129;BME280;4599;50.906;6.786;2023-03-23T03:56:43;15789.13;;;-142.83;74.17
9129;BME280;4599;50.906;6.786;2023-03-23T04:00:44;15738.03;;;-142.83;74.20
9129;BME280;4599;50.906;6.786;2023-03-23T04:04:44;15789.13;;;-142.83;73.98
9129;BME280;4599;50.906;6.786;2023-03-23T04:08:45;15795.28;;;-142.83;73.84
9129;BME280;4599;50.906;6.786;2023-03-23T04:12:47;15780.97;;;-142.83;74.86
9129;BME280;4599;50.906;6.786;2023-03-23T04:16:47;15764.59;;;-142.83;75.43
9129;BME280;4599;50.906;6.786;2023-03-23T04:20:48;15793.22;;;-142.83;75.14
9129;BME280;4599;50.906;6.786;2023-03-23T04:24:49;15764.59;;;-142.83;74.27
9129;BME280;4599;50.906;6.786;2023-03-23T04:28:51;15785.03;;;-142.83;74.53
9129;BME280;4599;50.906;6.786;2023-03-23T04:32:52;15801.41;;;-142.83;74.54
9129;BME280;4599;50.906;6.786;2023-03-23T04:36:52;15778.91;;;-142.83;74.31
9129;BME280;4599;50.906;6.786;2023-03-23T04:40:53;15770.72;;;-142.83;75.14
9129;BME280;4599;50.906;6.786;2023-03-23T04:44:55;15778.91;;;-142.83;73.59
9129;BME280;4599;50.906;6.786;2023-03-23T04:48:56;15811.63;;;-142.83;75.29
9129;BME280;4599;50.906;6.786;2023-03-23T04:52:57;15780.97;;;-142.83;73.59
9129;BME280;4599;50.906;6.786;2023-03-23T04:56:57;15795.28;;;-142.83;73.93
9129;BME280;4599;50.906;6.786;2023-03-23T05:00:59;15783.00;;;-142.83;73.97
9129;BME280;4599;50.906;6.786;2023-03-23T05:05:00;15791.19;;;-142.83;74.47
9129;BME280;4599;50.906;6.786;2023-03-23T05:09:00;15817.75;;;-142.83;72.98
9129;BME280;4599;50.906;6.786;2023-03-23T05:13:01;15772.78;;;-142.83;73.21
9129;BME280;4599;50.906;6.786;2023-03-23T05:17:02;15823.91;;;-142.83;73.34
9129;BME280;4599;50.906;6.786;2023-03-23T05:21:03;15797.31;;;-142.83;73.63
9129;BME280;4599;50.906;6.786;2023-03-23T05:25:05;15776.88;;;-142.83;73.40
9129;BME280;4599;50.906;6.786;2023-03-23T05:29:05;15801.41;;;-142.83;72.73
9129;BME280;4599;50.906;6.786;2023-03-23T05:33:07;15770.72;;;-142.83;72.28
9129;BME280;4599;50.906;6.786;2023-03-23T05:37:08;15838.22;;;-142.83;71.88
9129;BME280;4599;50.906;6.786;2023-03-23T05:41:09;15821.84;;;-142.83;71.92
9129;BME280;4599;50.906;6.786;2023-03-23T05:45:10;15793.22;;;-142.83;71.38
9129;BME280;4599;50.906;6.786;2023-03-23T05:49:12;15795.28;;;-142.83;71.08
9129;BME280;4599;50.906;6.786;2023-03-23T05:53:12;15848.44;;;-142.83;69.95
9129;BME280;4599;50.906;6.786;2023-03-23T05:57:12;15830.03;;;-142.83;69.59
9129;BME280;4599;50.906;6.786;2023-03-23T06:01:13;15891.38;;;-142.83;69.39
9129;BME280;4599;50.906;6.786;2023-03-23T06:05:15;15823.91;;;-142.83;69.16
9129;BME280;4599;50.906;6.786;2023-03-23T06:09:15;15842.28;;;-142.83;69.57
9129;BME280;4599;50.906;6.786;2023-03-23T06:13:16;15813.66;;;-142.83;70.56
9129;BME280;4599;50.906;6.786;2023-03-23T06:17:16;15803.44;;;-142.83;70.06
9129;BME280;4599;50.906;6.786;2023-03-23T06:21:18;15866.84;;;-142.83;69.63
9129;BME280;4599;50.906;6.786;2023-03-23T06:25:18;15877.06;;;-142.83;68.05
9129;BME280;4599;50.906;6.786;2023-03-23T06:29:19;15875.00;;;-142.83;69.23
9129;BME280;4599;50.906;6.786;2023-03-23T06:33:19;15823.91;;;-142.83;70.06
9129;BME280;4599;50.906;6.786;2023-03-23T06:37:21;15844.34;;;-142.83;69.48
9129;BME280;4599;50.906;6.786;2023-03-23T06:41:22;15870.91;;;-142.83;68.52
9129;BME280;4599;50.906;6.786;2023-03-23T06:45:22;15887.28;;;-142.83;67.93
9129;BME280;4599;50.906;6.786;2023-03-23T06:49:23;15887.28;;;-142.83;67.66
9129;BME280;4599;50.906;6.786;2023-03-23T06:53:24;15917.94;;;-142.83;67.11
9129;BME280;4599;50.906;6.786;2023-03-23T06:57:25;15940.44;;;-142.83;67.04
9129;BME280;4599;50.906;6.786;2023-03-23T07:01:26;15915.91;;;-142.83;66.87
9129;BME280;4599;50.906;6.786;2023-03-23T07:05:26;15905.69;;;-142.83;66.96
9129;BME280;4599;50.906;6.786;2023-03-23T07:09:28;15907.72;;;-142.83;66.77
9129;BME280;4599;50.906;6.786;2023-03-23T07:13:29;15956.78;;;-142.83;67.13
9129;BME280;4599;50.906;6.786;2023-03-23T07:17:29;15909.78;;;-142.83;66.47
9129;BME280;4599;50.906;6.786;2023-03-23T07:21:29;15956.78;;;-142.83;65.60
9129;BME280;4599;50.906;6.786;2023-03-23T07:25:32;15913.84;;;-142.83;66.63
9129;BME280;4599;50.906;6.786;2023-03-23T07:29:32;15956.78;;;-142.83;65.48
9129;BME280;4599;50.906;6.786;2023-03-23T07:33:33;15924.09;;;-142.83;65.76
9129;BME280;4599;50.906;6.786;2023-03-23T07:37:33;15940.44;;;-142.83;66.33
9129;BME280;4599;50.906;6.786;2023-03-23T07:41:35;15967.03;;;-142.83;65.45
9129;BME280;4599;50.906;6.786;2023-03-23T07:45:36;15924.09;;;-142.83;64.41
9129;BME280;4599;50.906;6.786;2023-03-23T07:49:36;15938.41;;;-142.83;66.79
9129;BME280;4599;50.906;6.786;2023-03-23T07:53:36;15971.09;;;-142.83;64.10
9129;BME280;4599;50.906;6.786;2023-03-23T07:57:38;15997.69;;;-142.83;63.42
9129;BME280;4599;50.906;6.786;2023-03-23T08:01:39;15926.13;;;-142.83;63.37
9129;BME280;4599;50.906;6.786;2023-03-23T08:05:39;15954.75;;;-142.83;64.76
9129;BME280;4599;50.906;6.786;2023-03-23T08:09:40;16024.28;;;-142.83;62.66
9129;BME280;4599;50.906;6.786;2023-03-23T08:13:41;16030.41;;;-142.83;62.82
9129;BME280;4599;50.906;6.786;2023-03-23T08:17:42;16020.19;;;-142.83;62.92
9129;BME280;4599;50.906;6.786;2023-03-23T08:21:43;16030.41;;;-142.83;62.00
9129;BME280;4599;50.906;6.786;2023-03-23T08:25:44;16018.13;;;-142.83;61.39
9129;BME280;4599;50.906;6.786;2023-03-23T08:29:46;16034.50;;;-142.83;61.73
9129;BME280;4599;50.906;6.786;2023-03-23T08:33:46;16057.00;;;-142.83;61.80
9129;BME280;4599;50.906;6.786;2023-03-23T08:37:46;15995.66;;;-142.83;61.61
9129;BME280;4599;50.906;6.786;2023-03-23T08:41:47;16050.84;;;-142.83;60.39
9129;BME280;4599;50.906;6.786;2023-03-23T08:45:49;16052.91;;;-142.83;60.50
9129;BME280;4599;50.906;6.786;2023-03-23T08:49:50;16081.53;;;-142.83;60.39
9129;BME280;4599;50.906;6.786;2023-03-23T08:53:50;16071.31;;;-142.83;60.00
9129;BME280;4599;50.906;6.786;2023-03-23T08:57:51;16042.69;;;-142.83;61.01
9129;BME280;4599;50.906;6.786;2023-03-23T09:01:52;16059.03;;;-142.83;59.98
9129;BME280;4599;50.906;6.786;2023-03-23T09:05:53;16104.00;;;-142.83;60.71
9129;BME280;4599;50.906;6.786;2023-03-23T09:09:53;16120.38;;;-142.83;59.06
9129;BME280;4599;50.906;6.786;2023-03-23T09:13:54;16149.00;;;-142.83;59.72
9129;BME280;4599;50.906;6.786;2023-03-23T09:17:56;16108.09;;;-142.83;59.00
9129;BME280;4599;50.906;6.786;2023-03-23T09:21:57;16146.97;;;-142.83;57.16
9129;BME280;4599;50.906;6.786;2023-03-23T09:25:59;16157.19;;;-142.83;58.93
9129;BME280;4599;50.906;6.786;2023-03-23T09:30:00;16124.47;;;-142.83;58.12
9129;BME280;4599;50.906;6.786;2023-03-23T09:34:01;16106.06;;;-142.83;58.32
9129;BME280;4599;50.906;6.786;2023-03-23T09:38:03;16083.56;;;-142.83;59.15
9129;BME280;4599;50.906;6.786;2023-03-23T09:42:13;16128.56;;;-142.83;56.71
9129;BME280;4599;50.906;6.786;2023-03-23T09:46:28;16099.94;;;-142.83;56.66
9129;BME280;4599;50.906;6.786;2023-03-23T09:50:33;16120.38;;;-142.83;57.62
9129;BME280;4599;50.906;6.786;2023-03-23T09:54:37;16136.72;;;-142.83;57.39
9129;BME280;4599;50.906;6.786;2023-03-23T09:58:43;16157.19;;;-142.83;57.74
9129;BME280;4599;50.906;6.786;2023-03-23T10:02:49;16128.56;;;-142.83;57.79
9129;BME280;4599;50.906;6.786;2023-03-23T10:06:57;16079.47;;;-142.83;58.92
9129;BME280;4599;50.906;6.786;2023-03-23T10:11:02;16124.47;;;-142.83;57.33
9129;BME280;4599;50.906;6.786;2023-03-23T10:15:13;16116.28;;;-142.83;57.84
9129;BME280;4599;50.906;6.786;2023-03-23T10:19:20;16079.47;;;-142.83;59.04
9129;BME280;4599;50.906;6.786;2023-03-23T10:23:44;16059.03;;;-142.83;60.34
9129;BME280;4599;50.906;6.786;2023-03-23T10:27:52;16032.44;;;-142.83;61.49
9129;BME280;4599;50.906;6.786;2023-03-23T10:31:58;15989.50;;;-142.83;61.87
9129;BME280;4599;50.906;6.786;2023-03-23T10:36:02;16001.78;;;-142.83;62.86
9129;BME280;4599;50.906;6.786;2023-03-23T10:40:12;16061.06;;;-142.83;61.91
9129;BME280;4599;50.906;6.786;2023-03-23T10:44:19;15985.41;;;-142.83;62.51
9129;BME280;4599;50.906;6.786;2023-03-23T10:48:23;16001.78;;;-142.83;64.05
9129;BME280;4599;50.906;6.786;2023-03-23T10:52:33;16030.41;;;-142.83;63.01
9129;BME280;4599;50.906;6.786;2023-03-23T10:56:37;16038.59;;;-142.83;63.23
9129;BME280;4599;50.906;6.786;2023-03-23T11:00:44;16018.13;;;-142.83;63.61
9129;BME280;4599;50.906;6.786;2023-03-23T11:04:46;16042.69;;;-142.83;62.67
9129;BME280;4599;50.906;6.786;2023-03-23T11:08:55;16073.34;;;-142.83;62.74
9129;BME280;4599;50.906;6.786;2023-03-23T11:12:58;16024.28;;;-142.83;63.71
9129;BME280;4599;50.906;6.786;2023-03-23T11:17:00;16059.03;;;-142.83;62.37
9129;BME280;4599;50.906;6.786;2023-03-23T11:21:02;16050.84;;;-142.83;61.85
9129;BME280;4599;50.906;6.786;2023-03-23T11:25:05;16067.22;;;-142.83;61.67
9129;BME280;4599;50.906;6.786;2023-03-23T11:29:10;16067.22;;;-142.83;60.10
9129;BME280;4599;50.906;6.786;2023-03-23T11:33:13;16112.19;;;-142.83;59.70
9129;BME280;4599;50.906;6.786;2023-03-23T11:37:21;16083.56;;;-142.83;60.06
9129;BME280;4599;50.906;6.786;2023-03-23T11:41:23;16065.16;;;-142.83;60.13
9129;BME280;4599;50.906;6.786;2023-03-23T11:45:32;16079.47;;;-142.83;61.98
9129;BME280;4599;50.906;6.786;2023-03-23T11:49:39;16038.59;;;-142.83;62.51
9129;BME280;4599;50.906;6.786;2023-03-23T11:53:47;16063.13;;;-142.83;62.51
9129;BME280;4599;50.906;6.786;2023-03-23T11:57:49;16067.22;;;-142.83;62.35
9129;BME280;4599;50.906;6.786;2023-03-23T12:01:56;16048.81;;;-142.83;62.25
9129;BME280;4599;50.906;6.786;2023-03-23T12:06:02;16085.63;;;-142.83;61.75
9129;BME280;4599;50.906;6.786;2023-03-23T12:10:14;16118.34;;;-142.83;62.66
9129;BME280;4599;50.906;6.786;2023-03-23T12:14:23;16394.38;;;-142.83;61.99
9129;BME280;4599;50.906;6.786;2023-03-23T12:18:40;16249.19;;;-142.83;60.15
9129;BME280;4599;50.906;6.786;2023-03-23T12:22:58;16243.06;;;-142.83;58.74
9129;BME280;4599;50.906;6.786;2023-03-23T12:27:04;16210.34;;;-142.83;57.76
9129;BME280;4599;50.906;6.786;2023-03-23T12:31:11;16157.19;;;-142.83;57.37
9129;BME280;4599;50.906;6.786;2023-03-23T12:35:25;16163.31;;;-142.83;58.15
9129;BME280;4599;50.906;6.786;2023-03-23T12:39:48;16177.63;;;-142.83;58.69
9129;BME280;4599;50.906;6.786;2023-03-23T12:43:52;16167.41;;;-142.83;57.79
9129;BME280;4599;50.906;6.786;2023-03-23T12:47:56;16167.41;;;-142.83;58.39
9129;BME280;4599;50.906;6.786;2023-03-23T12:52:04;16185.81;;;-142.83;57.88
9129;BME280;4599;50.906;6.786;2023-03-23T12:56:12;16226.69;;;-142.83;57.07
9129;BME280;4599;50.906;6.786;2023-03-23T13:00:18;16177.63;;;-142.83;57.06
9129;BME280;4599;50.906;6.786;2023-03-23T13:04:23;16202.16;;;-142.83;56.90
9129;BME280;4599;50.906;6.786;2023-03-23T13:08:30;16153.09;;;-142.83;58.67
9129;BME280;4599;50.906;6.786;2023-03-23T13:12:32;16108.09;;;-142.83;59.12
9129;BME280;4599;50.906;6.786;2023-03-23T13:16:39;16108.09;;;-142.83;61.25
9129;BME280;4599;50.906;6.786;2023-03-23T13:20:54;16106.06;;;-142.83;60.35
9129;BME280;4599;50.906;6.786;2023-03-23T13:25:02;16099.94;;;-142.83;60.71
9129;BME280;4599;50.906;6.786;2023-03-23T13:29:11;16069.25;;;-142.83;62.25
9129;BME280;4599;50.906;6.786;2023-03-23T13:33:13;16022.22;;;-142.83;64.13
9129;BME280;4599;50.906;6.786;2023-03-23T13:37:21;15979.28;;;-142.83;64.56
9129;BME280;4599;50.906;6.786;2023-03-23T13:41:24;16005.88;;;-142.83;62.93
9129;BME280;4599;50.906;6.786;2023-03-23T13:45:42;16075.38;;;-142.83;61.84
9129;BME280;4599;50.906;6.786;2023-03-23T13:49:53;16095.84;;;-142.83;62.31
9129;BME280;4599;50.906;6.786;2023-03-23T13:54:06;16112.19;;;-142.83;61.20
9129;BME280;4599;50.906;6.786;2023-03-23T13:58:21;16110.16;;;-142.83;60.25
9129;BME280;4599;50.906;6.786;2023-03-23T14:02:31;16095.84;;;-142.83;60.32
9129;BME280;4599;50.906;6.786;2023-03-23T14:06:34;16079.47;;;-142.83;60.19
9129;BME280;4599;50.906;6.786;2023-03-23T14:10:36;16120.38;;;-142.83;59.60
9129;BME280;4599;50.906;6.786;2023-03-23T14:14:42;16108.09;;;-142.83;59.32
9129;BME280;4599;50.906;6.786;2023-03-23T14:18:50;16085.63;;;-142.83;59.96
9129;BME280;4599;50.906;6.786;2023-03-23T14:22:54;16136.72;;;-142.83;58.32
9129;BME280;4599;50.906;6.786;2023-03-23T14:27:02;16153.09;;;-142.83;57.74
9129;BME280;4599;50.906;6.786;2023-03-23T14:31:05;16114.25;;;-142.83;58.90
9129;BME280;4599;50.906;6.786;2023-03-23T14:35:08;16089.69;;;-142.83;60.86
9129;BME280;4599;50.906;6.786;2023-03-23T14:39:18;16097.88;;;-142.83;59.87
9129;BME280;4599;50.906;6.786;2023-03-23T14:43:21;16028.34;;;-142.83;63.32
9129;BME280;4599;50.906;6.786;2023-03-23T14:47:26;16065.16;;;-142.83;61.84
9129;BME280;4599;50.906;6.786;2023-03-23T14:51:27;16063.13;;;-142.83;61.12
9129;BME280;4599;50.906;6.786;2023-03-23T14:55:27;16132.66;;;-142.83;59.82
9129;BME280;4599;50.906;6.786;2023-03-23T14:59:30;16128.56;;;-142.83;59.25
9129;BME280;4599;50.906;6.786;2023-03-23T15:03:35;16161.28;;;-142.83;58.32
9129;BME280;4599;50.906;6.786;2023-03-23T15:07:38;16167.41;;;-142.83;57.22
9129;BME280;4599;50.906;6.786;2023-03-23T15:11:39;16216.47;;;-142.83;57.14
9129;BME280;4599;50.906;6.786;2023-03-23T15:15:40;16202.16;;;-142.83;56.67
9129;BME280;4599;50.906;6.786;2023-03-23T15:19:43;16189.91;;;-142.83;56.37
9129;BME280;4599;50.906;6.786;2023-03-23T15:23:44;16218.53;;;-142.83;56.25
9129;BME280;4599;50.906;6.786;2023-03-23T15:27:49;16241.03;;;-142.83;54.87
9129;BME280;4599;50.906;6.786;2023-03-23T15:31:54;16214.44;;;-142.83;54.46
9129;BME280;4599;50.906;6.786;2023-03-23T15:35:56;16194.00;;;-142.83;54.56
9129;BME280;4599;50.906;6.786;2023-03-23T15:39:58;16189.91;;;-142.83;54.60
9129;BME280;4599;50.906;6.786;2023-03-23T15:44:12;16183.75;;;-142.83;54.86
9129;BME280;4599;50.906;6.786;2023-03-23T15:48:13;16177.63;;;-142.83;55.26
9129;BME280;4599;50.906;6.786;2023-03-23T15:52:15;16167.41;;;-142.83;56.65
9129;BME280;4599;50.906;6.786;2023-03-23T15:56:16;16173.53;;;-142.83;55.13
9129;BME280;4599;50.906;6.786;2023-03-23T16:00:18;16165.34;;;-142.83;55.16
9129;BME280;4599;50.906;6.786;2023-03-23T16:04:20;16183.75;;;-142.83;56.20
9129;BME280;4599;50.906;6.786;2023-03-23T16:08:23;16222.63;;;-142.83;55.40
9129;BME280;4599;50.906;6.786;2023-03-23T16:12:25;16128.56;;;-142.83;56.29
9129;BME280;4599;50.906;6.786;2023-03-23T16:16:27;16202.16;;;-142.83;54.82
9129;BME280;4599;50.906;6.786;2023-03-23T16:20:30;16226.69;;;-142.83;55.06
9129;BME280;4599;50.906;6.786;2023-03-23T16:24:33;16159.22;;;-142.83;55.85
9129;BME280;4599;50.906;6.786;2023-03-23T16:28:34;16165.34;;;-142.83;55.54
9129;BME280;4599;50.906;6.786;2023-03-23T16:32:36;16181.72;;;-142.83;55.19
9129;BME280;4599;50.906;6.786;2023-03-23T16:36:36;16165.34;;;-142.83;55.49
9129;BME280;4599;50.906;6.786;2023-03-23T16:40:39;16179.66;;;-142.83;54.92
9129;BME280;4599;50.906;6.786;2023-03-23T16:44:41;16171.50;;;-142.83;55.08
9129;BME280;4599;50.906;6.786;2023-03-23T16:48:42;16234.88;;;-142.83;54.27
9129;BME280;4599;50.906;6.786;2023-03-23T16:52:45;16173.53;;;-142.83;56.10
9129;BME280;4599;50.906;6.786;2023-03-23T16:56:48;16140.81;;;-142.83;55.75
9129;BME280;4599;50.906;6.786;2023-03-23T17:00:50;16153.09;;;-142.83;56.36
9129;BME280;4599;50.906;6.786;2023-03-23T17:04:52;16153.09;;;-142.83;55.61
9129;BME280;4599;50.906;6.786;2023-03-23T17:08:53;16161.28;;;-142.83;56.35
9129;BME280;4599;50.906;6.786;2023-03-23T17:12:56;16101.97;;;-142.83;56.85
9129;BME280;4599;50.906;6.786;2023-03-23T17:16:58;16120.38;;;-142.83;57.14
9129;BME280;4599;50.906;6.786;2023-03-23T17:21:00;16079.47;;;-142.83;56.65
9129;BME280;4599;50.906;6.786;2023-03-23T17:25:03;16116.28;;;-142.83;57.33
9129;BME280;4599;50.906;6.786;2023-03-23T17:29:07;16128.56;;;-142.83;57.50
9129;BME280;4599;50.906;6.786;2023-03-23T17:33:09;16067.22;;;-142.83;57.58
9129;BME280;4599;50.906;6.786;2023-03-23T17:37:10;16118.34;;;-142.83;57.23
9129;BME280;4599;50.906;6.786;2023-03-23T17:41:12;16077.44;;;-142.83;57.45
9129;BME280;4599;50.906;6.786;2023-03-23T17:45:15;16097.88;;;-142.83;57.61
9129;BME280;4599;50.906;6.786;2023-03-23T17:49:17;16095.84;;;-142.83;57.64
9129;BME280;4599;50.906;6.786;2023-03-23T17:53:18;16124.47;;;-142.83;57.69
9129;BME280;4599;50.906;6.786;2023-03-23T17:57:20;16087.66;;;-142.83;58.11
9129;BME280;4599;50.906;6.786;2023-03-23T18:01:22;16083.56;;;-142.83;58.34
9129;BME280;4599;50.906;6.786;2023-03-23T18:05:24;16097.88;;;-142.83;58.24
9129;BME280;4599;50.906;6.786;2023-03-23T18:09:25;16091.75;;;-142.83;58.64
9129;BME280;4599;50.906;6.786;2023-03-23T18:13:29;16054.94;;;-142.83;58.64
9129;BME280;4599;50.906;6.786;2023-03-23T18:17:32;16077.44;;;-142.83;59.72
9129;BME280;4599;50.906;6.786;2023-03-23T18:21:34;16057.00;;;-142.83;59.46
9129;BME280;4599;50.906;6.786;2023-03-23T18:25:36;16046.75;;;-142.83;59.85
9129;BME280;4599;50.906;6.786;2023-03-23T18:29:37;16073.34;;;-142.83;59.73
9129;BME280;4599;50.906;6.786;2023-03-23T18:33:41;16046.75;;;-142.83;60.11
9129;BME280;4599;50.906;6.786;2023-03-23T18:37:43;16083.56;;;-142.83;59.78
9129;BME280;4599;50.906;6.786;2023-03-23T18:41:44;16061.06;;;-142.83;60.01
9129;BME280;4599;50.906;6.786;2023-03-23T18:45:47;16040.63;;;-142.83;60.17
9129;BME280;4599;50.906;6.786;2023-03-23T18:49:50;16046.75;;;-142.83;60.17
9129;BME280;4599;50.906;6.786;2023-03-23T18:53:52;16020.19;;;-142.83;60.46
9129;BME280;4599;50.906;6.786;2023-03-23T18:57:53;16040.63;;;-142.83;60.31
9129;BME280;4599;50.906;6.786;2023-03-23T19:01:55;16046.75;;;-142.83;60.22
9129;BME280;4599;50.906;6.786;2023-03-23T19:05:59;16065.16;;;-142.83;60.35
9129;BME280;4599;50.906;6.786;2023-03-23T19:25:21;16001.78;;;-142.83;62.58
9129;BME280;4599;50.906;6.786;2023-03-23T19:40:04;16022.22;;;-142.83;62.63
9129;BME280;4599;50.906;6.786;2023-03-23T19:44:27;15973.16;;;-142.83;62.42
